createdAt,value
2018-09-08T00:01:59.292Z,94847.80
2018-09-08T00:04:28.155Z,94848.42
2018-09-08T00:07:03.139Z,94845.71
2018-09-08T00:09:32.218Z,94849.47
2018-09-08T00:12:01.386Z,94846.42
2018-09-08T00:14:30.706Z,94852.34
2018-09-08T00:17:04.873Z,94846.56
2018-09-08T00:19:39.607Z,94849.61
2018-09-08T00:22:13.695Z,94848.22
2018-09-08T00:24:48.014Z,94855.69
2018-09-08T00:27:21.262Z,94849.41
2018-09-08T00:29:51.781Z,94855.48
2018-09-08T00:32:22.214Z,94854.23
2018-09-08T00:34:51.155Z,94853.25
2018-09-08T00:37:20.639Z,94853.14
2018-09-08T00:39:51.945Z,94851.87
2018-09-08T00:42:21.307Z,94851.62
2018-09-08T00:44:50.291Z,94848.97
2018-09-08T00:47:19.306Z,94849.34
2018-09-08T00:49:48.622Z,94846.06
2018-09-08T00:52:17.527Z,94849.46
2018-09-08T00:54:46.654Z,94853.36
2018-09-08T00:57:15.792Z,94856.50
2018-09-08T00:59:44.947Z,94859.42
2018-09-08T01:02:14.255Z,94858.76
2018-09-08T01:04:43.331Z,94857.76
2018-09-08T01:07:17.507Z,94858.28
2018-09-08T01:09:47.002Z,94863.93
2018-09-08T01:12:16.282Z,94874.35
2018-09-08T01:14:45.157Z,94872.70
2018-09-08T01:17:14.109Z,94875.34
2018-09-08T01:19:43.215Z,94878.11
2018-09-08T01:22:12.831Z,94879.73
2018-09-08T01:24:42.173Z,94876.48
2018-09-08T01:27:11.311Z,94880.00
2018-09-08T01:29:40.259Z,94879.00
2018-09-08T01:32:09.970Z,94874.71
2018-09-08T01:34:39.131Z,94870.56
2018-09-08T01:37:08.242Z,94871.54
2018-09-08T01:39:37.602Z,94871.67
2018-09-08T01:42:06.719Z,94865.27
2018-09-08T01:44:35.738Z,94873.44
2018-09-08T01:47:04.954Z,94872.97
2018-09-08T01:49:34.082Z,94873.35
2018-09-08T01:52:02.898Z,94875.84
2018-09-08T01:54:31.970Z,94876.23
2018-09-08T01:57:01.015Z,94877.88
2018-09-08T01:59:30.173Z,94876.36
2018-09-08T02:01:59.269Z,94883.53
2018-09-08T02:04:28.211Z,94875.61
2018-09-08T02:06:57.200Z,94883.64
2018-09-08T02:09:26.543Z,94880.36
2018-09-08T02:11:55.608Z,94876.20
2018-09-08T02:14:24.710Z,94877.08
2018-09-08T02:16:53.930Z,94873.17
2018-09-08T02:19:22.794Z,94879.43
2018-09-08T02:21:51.791Z,94878.61
2018-09-08T02:24:21.117Z,94875.21
2018-09-08T02:26:50.088Z,94872.66
2018-09-08T02:29:19.086Z,94872.17
2018-09-08T02:31:48.098Z,94871.06
2018-09-08T02:34:17.685Z,94874.17
2018-09-08T02:36:46.766Z,94877.17
2018-09-08T02:39:16.410Z,94883.80
2018-09-08T02:41:45.218Z,94887.02
2018-09-08T02:44:14.376Z,94888.77
2018-09-08T02:46:43.487Z,94881.56
2018-09-08T02:49:12.479Z,94889.23
2018-09-08T02:51:39.937Z,94882.72
2018-09-08T02:54:07.322Z,94881.09
2018-09-08T02:56:34.658Z,94886.39
2018-09-08T02:59:01.989Z,94887.00
2018-09-08T03:01:29.358Z,94889.23
2018-09-08T03:03:56.829Z,94887.86
2018-09-08T03:06:24.169Z,94889.19
2018-09-08T03:08:51.542Z,94896.41
2018-09-08T03:11:18.867Z,94901.89
2018-09-08T03:13:46.198Z,94898.11
2018-09-08T03:16:13.584Z,94901.45
2018-09-08T03:18:40.912Z,94905.76
2018-09-08T03:21:08.423Z,94899.95
2018-09-08T03:23:35.795Z,94903.62
2018-09-08T03:26:03.218Z,94901.75
2018-09-08T03:28:30.547Z,94909.91
2018-09-08T03:30:58.366Z,94906.24
2018-09-08T03:33:25.723Z,94906.86
2018-09-08T03:35:53.186Z,94905.38
2018-09-08T03:38:21.645Z,94902.56
2018-09-08T03:40:49.933Z,94900.88
2018-09-08T03:43:18.322Z,94906.77
2018-09-08T03:45:45.901Z,94898.75
2018-09-08T03:48:13.235Z,94908.55
2018-09-08T03:50:40.572Z,94903.56
2018-09-08T03:53:07.995Z,94911.93
2018-09-08T03:55:35.327Z,94912.46
2018-09-08T03:58:02.751Z,94915.76
2018-09-08T04:00:30.114Z,94919.44
2018-09-08T04:02:59.278Z,94921.05
2018-09-08T04:05:28.224Z,94920.52
2018-09-08T04:07:57.547Z,94915.55
2018-09-08T04:10:26.800Z,94914.28
2018-09-08T04:12:55.795Z,94918.84
2018-09-08T04:15:25.106Z,94926.34
2018-09-08T04:17:54.202Z,94928.37
2018-09-08T04:20:23.294Z,94927.54
2018-09-08T04:22:52.427Z,94929.85
2018-09-08T04:25:21.479Z,94935.19
2018-09-08T04:27:50.360Z,94941.16
2018-09-08T04:30:19.699Z,94939.40
2018-09-08T04:32:48.983Z,94942.33
2018-09-08T04:35:17.966Z,94941.55
2018-09-08T04:37:47.099Z,94939.58
2018-09-08T04:40:16.379Z,94946.10
2018-09-08T04:42:45.244Z,94942.41
2018-09-08T04:45:14.303Z,94947.08
2018-09-08T04:47:43.257Z,94947.11
2018-09-08T04:50:12.329Z,94955.05
2018-09-08T04:52:41.275Z,94959.81
2018-09-08T04:55:10.476Z,94954.50
2018-09-08T04:57:39.459Z,94953.88
2018-09-08T05:00:09.613Z,94958.20
2018-09-08T05:02:39.063Z,94956.16
2018-09-08T05:05:08.137Z,94958.45
2018-09-08T05:07:37.667Z,94965.83
2018-09-08T05:10:07.167Z,94966.84
2018-09-08T05:12:36.239Z,94965.67
2018-09-08T05:15:05.182Z,94958.98
2018-09-08T05:17:34.232Z,94962.97
2018-09-08T05:20:03.534Z,94973.58
2018-09-08T05:22:32.630Z,94971.70
2018-09-08T05:25:01.652Z,94982.84
2018-09-08T05:27:31.276Z,94980.69
2018-09-08T05:30:00.474Z,94984.03
2018-09-08T05:32:29.658Z,94984.02
2018-09-08T05:34:59.560Z,94980.13
2018-09-08T05:37:28.473Z,94977.28
2018-09-08T05:39:57.999Z,94977.59
2018-09-08T05:42:27.178Z,94984.16
2018-09-08T05:44:56.171Z,94981.28
2018-09-08T05:47:25.357Z,94985.93
2018-09-08T05:49:55.587Z,94986.16
2018-09-08T05:52:25.075Z,94984.25
2018-09-08T05:54:54.139Z,94981.88
2018-09-08T05:57:23.657Z,94982.11
2018-09-08T05:59:52.613Z,94980.48
2018-09-08T06:02:21.510Z,94986.69
2018-09-08T06:04:50.835Z,94989.88
2018-09-08T06:07:19.955Z,94986.77
2018-09-08T06:09:49.062Z,94994.30
2018-09-08T06:12:18.539Z,94992.56
2018-09-08T06:14:48.614Z,94995.30
2018-09-08T06:17:17.413Z,94997.55
2018-09-08T06:19:46.573Z,95000.76
2018-09-08T06:22:15.483Z,95000.81
2018-09-08T06:24:44.591Z,94991.26
2018-09-08T06:27:13.698Z,94995.56
2018-09-08T06:29:42.743Z,94993.71
2018-09-08T06:32:11.851Z,94999.69
2018-09-08T06:34:40.890Z,95002.72
2018-09-08T06:37:09.872Z,95007.81
2018-09-08T06:39:39.141Z,95005.73
2018-09-08T06:42:08.463Z,94999.49
2018-09-08T06:44:37.684Z,95007.77
2018-09-08T06:47:06.634Z,94995.86
2018-09-08T06:49:35.700Z,95013.24
2018-09-08T06:52:04.665Z,94999.95
2018-09-08T06:54:33.646Z,95009.67
2018-09-08T06:57:03.064Z,95015.94
2018-09-08T06:59:32.262Z,95017.45
2018-09-08T07:02:01.538Z,95022.69
2018-09-08T07:04:30.974Z,95017.52
2018-09-08T07:07:00.127Z,95022.14
2018-09-08T07:09:29.132Z,95022.83
2018-09-08T07:11:57.974Z,95023.24
2018-09-08T07:14:27.142Z,95022.25
2018-09-08T07:16:56.443Z,95021.70
2018-09-08T07:19:25.580Z,95027.92
2018-09-08T07:21:54.722Z,95031.69
2018-09-08T07:24:24.248Z,95026.53
2018-09-08T07:26:53.293Z,95029.92
2018-09-08T07:29:22.127Z,95028.91
2018-09-08T07:31:51.278Z,95022.44
2018-09-08T07:34:20.446Z,95028.58
2018-09-08T07:36:49.415Z,95026.50
2018-09-08T07:39:18.513Z,95033.16
2018-09-08T07:41:47.664Z,95025.77
2018-09-08T07:44:16.770Z,95035.56
2018-09-08T07:46:45.991Z,95034.98
2018-09-08T07:49:15.119Z,95038.65
2018-09-08T07:51:44.183Z,95040.80
2018-09-08T07:54:13.200Z,95041.80
2018-09-08T07:56:42.927Z,95043.15
2018-09-08T07:59:11.972Z,95047.41
2018-09-08T08:01:41.206Z,95044.77
2018-09-08T08:04:10.261Z,95042.08
2018-09-08T08:06:39.418Z,95040.83
2018-09-08T08:09:09.493Z,95036.41
2018-09-08T08:11:38.961Z,95044.63
2018-09-08T08:14:08.228Z,95043.72
2018-09-08T08:16:37.424Z,95048.28
2018-09-08T08:19:06.813Z,95048.34
2018-09-08T08:21:35.791Z,95038.47
2018-09-08T08:24:04.823Z,95048.78
2018-09-08T08:26:34.158Z,95048.45
2018-09-08T08:29:03.371Z,95030.41
2018-09-08T08:31:32.296Z,95044.00
2018-09-08T08:34:01.538Z,95037.50
2018-09-08T08:36:30.514Z,95041.89
2018-09-08T08:38:59.582Z,95038.83
2018-09-08T08:41:29.022Z,95044.75
2018-09-08T08:43:57.990Z,95041.95
2018-09-08T08:46:27.004Z,95036.43
2018-09-08T08:48:56.290Z,95032.50
2018-09-08T08:51:36.256Z,95029.65
2018-09-08T08:54:19.794Z,95018.70
2018-09-08T08:56:48.916Z,95017.88
2018-09-08T08:59:18.484Z,95021.48
2018-09-08T09:01:47.519Z,95020.91
2018-09-08T09:04:16.594Z,95020.97
2018-09-08T09:06:45.282Z,95022.94
2018-09-08T09:09:15.403Z,95011.27
2018-09-08T09:11:45.358Z,95017.06
2018-09-08T09:14:14.634Z,95017.48
2018-09-08T09:16:43.822Z,95018.70
2018-09-08T09:19:34.927Z,95020.55
2018-09-08T09:22:16.314Z,95011.73
2018-09-08T09:24:52.607Z,95008.47
2018-09-08T09:27:21.955Z,95009.63
2018-09-08T09:29:50.870Z,95013.59
2018-09-08T09:32:20.035Z,95013.14
2018-09-08T09:34:49.582Z,95018.54
2018-09-08T09:37:18.828Z,95009.56
2018-09-08T09:39:48.367Z,95006.67
2018-09-08T09:42:17.570Z,95008.88
2018-09-08T09:44:46.486Z,95006.03
2018-09-08T09:47:15.886Z,95011.14
2018-09-08T09:49:45.095Z,95006.82
2018-09-08T09:52:14.041Z,95002.21
2018-09-08T09:54:42.977Z,95008.67
2018-09-08T09:57:12.339Z,95002.87
2018-09-08T09:59:41.566Z,94998.62
2018-09-08T10:02:19.091Z,94998.27
2018-09-08T10:04:48.132Z,95004.38
2018-09-08T10:07:17.209Z,95009.52
2018-09-08T10:09:46.664Z,94996.59
2018-09-08T10:12:15.615Z,94997.59
2018-09-08T10:14:44.544Z,95003.28
2018-09-08T10:17:14.055Z,95001.75
2018-09-08T10:19:43.682Z,94995.42
2018-09-08T10:22:12.935Z,94995.54
2018-09-08T10:24:42.193Z,94987.98
2018-09-08T10:27:11.271Z,94984.05
2018-09-08T10:29:40.588Z,94982.89
2018-09-08T10:32:10.259Z,94976.19
2018-09-08T10:34:39.181Z,94973.89
2018-09-08T10:37:08.079Z,94980.94
2018-09-08T10:39:37.175Z,94969.26
2018-09-08T10:42:06.133Z,94969.52
2018-09-08T10:44:35.431Z,94975.69
2018-09-08T10:47:04.942Z,94965.03
2018-09-08T10:49:34.049Z,94961.82
2018-09-08T10:52:19.137Z,94961.11
2018-09-08T10:54:48.715Z,94960.16
2018-09-08T10:57:18.243Z,94959.41
2018-09-08T10:59:47.503Z,94959.50
2018-09-08T11:02:16.752Z,94954.92
2018-09-08T11:04:46.655Z,94964.72
2018-09-08T11:07:15.758Z,94961.20
2018-09-08T11:09:44.772Z,94960.50
2018-09-08T11:12:13.943Z,94954.95
2018-09-08T11:14:43.211Z,94951.61
2018-09-08T11:17:12.141Z,94951.55
2018-09-08T11:19:41.339Z,94946.28
2018-09-08T11:22:10.545Z,94949.41
2018-09-08T11:24:39.523Z,94951.66
2018-09-08T11:27:08.530Z,94955.77
2018-09-08T11:29:37.828Z,94959.22
2018-09-08T11:32:06.914Z,94956.80
2018-09-08T11:34:36.000Z,94965.05
2018-09-08T11:37:05.946Z,94958.83
2018-09-08T11:39:34.945Z,94958.83
2018-09-08T11:42:04.040Z,94968.44
2018-09-08T11:44:33.446Z,94973.52
2018-09-08T11:47:02.757Z,94981.27
2018-09-08T11:49:32.087Z,94984.60
2018-09-08T11:52:01.476Z,94981.09
2018-09-08T11:54:30.550Z,94979.53
2018-09-08T11:56:59.527Z,94979.43
2018-09-08T11:59:28.847Z,94977.19
2018-09-08T12:01:58.442Z,94981.72
2018-09-08T12:04:27.647Z,95001.22
2018-09-08T12:06:56.886Z,95002.09
2018-09-08T12:09:25.938Z,94997.15
2018-09-08T12:11:54.862Z,94993.31
2018-09-08T12:14:24.151Z,95001.16
2018-09-08T12:16:53.102Z,95005.51
2018-09-08T12:19:22.108Z,95002.66
2018-09-08T12:21:51.616Z,95004.86
2018-09-08T12:24:20.713Z,94996.94
2018-09-08T12:26:49.716Z,94994.27
2018-09-08T12:29:19.157Z,94981.28
2018-09-08T12:31:48.067Z,94986.84
2018-09-08T12:34:16.899Z,94983.88
2018-09-08T12:36:46.428Z,94989.66
2018-09-08T12:39:15.499Z,94987.11
2018-09-08T12:41:44.702Z,94988.52
2018-09-08T12:44:13.946Z,94983.30
2018-09-08T12:46:43.484Z,94981.56
2018-09-08T12:49:12.360Z,94982.89
2018-09-08T12:51:41.414Z,94979.16
2018-09-08T12:54:10.479Z,94978.41
2018-09-08T12:56:39.482Z,94987.23
2018-09-08T12:59:08.814Z,94975.50
2018-09-08T13:01:37.903Z,94974.30
2018-09-08T13:04:07.424Z,94983.37
2018-09-08T13:06:36.416Z,94978.34
2018-09-08T13:09:06.190Z,94980.70
2018-09-08T13:11:35.317Z,94989.80
2018-09-08T13:14:04.767Z,94997.28
2018-09-08T13:16:33.574Z,94996.29
2018-09-08T13:19:02.663Z,94988.34
2018-09-08T13:21:32.157Z,94987.46
2018-09-08T13:24:01.026Z,94985.91
2018-09-08T13:26:29.940Z,94985.05
2018-09-08T13:28:59.264Z,94978.25
2018-09-08T13:31:28.263Z,94986.41
2018-09-08T13:33:57.304Z,94986.11
2018-09-08T13:36:27.651Z,94983.34
2018-09-08T13:38:56.811Z,94984.17
2018-09-08T13:41:25.958Z,94980.30
2018-09-08T13:43:55.522Z,94987.02
2018-09-08T13:46:24.559Z,94986.28
2018-09-08T13:48:53.467Z,94985.63
2018-09-08T13:51:22.774Z,94976.04
2018-09-08T13:53:51.884Z,94983.97
2018-09-08T13:56:20.959Z,94979.92
2018-09-08T13:58:49.909Z,94979.41
2018-09-08T14:01:19.171Z,94977.30
2018-09-08T14:03:48.286Z,94980.56
2018-09-08T14:06:17.809Z,94983.45
2018-09-08T14:08:46.862Z,94980.56
2018-09-08T14:11:15.674Z,94971.60
2018-09-08T14:13:45.208Z,94976.55
2018-09-08T14:16:14.352Z,94977.14
2018-09-08T14:18:43.482Z,94977.86
2018-09-08T14:21:12.691Z,94970.77
2018-09-08T14:23:41.959Z,94974.66
2018-09-08T14:26:11.055Z,94973.56
2018-09-08T14:28:40.655Z,94970.90
2018-09-08T14:31:09.544Z,94968.68
2018-09-08T14:33:38.908Z,94968.68
2018-09-08T14:36:08.204Z,94967.01
2018-09-08T14:38:37.164Z,94969.50
2018-09-08T14:41:06.162Z,94965.99
2018-09-08T14:43:35.395Z,94969.45
2018-09-08T14:46:04.465Z,94973.66
2018-09-08T14:48:33.531Z,94978.99
2018-09-08T14:51:02.556Z,94989.94
2018-09-08T14:53:31.600Z,94999.79
2018-09-08T14:56:00.719Z,95066.16
2018-09-08T14:58:30.057Z,95036.17
2018-09-08T15:00:58.939Z,95034.48
2018-09-08T15:03:27.837Z,95027.73
2018-09-08T15:05:56.983Z,95020.93
2018-09-08T15:08:25.909Z,95016.18
2018-09-08T15:10:55.240Z,95030.56
2018-09-08T15:13:25.314Z,95035.72
2018-09-08T15:15:54.529Z,95042.97
2018-09-08T15:18:23.536Z,95042.40
2018-09-08T15:20:52.814Z,95042.75
2018-09-08T15:23:22.370Z,95045.66
2018-09-08T15:25:51.462Z,95050.84
2018-09-08T15:28:20.756Z,95046.67
2018-09-08T15:30:49.843Z,95041.45
2018-09-08T15:33:18.801Z,95041.70
2018-09-08T15:35:48.219Z,95040.03
2018-09-08T15:38:17.216Z,95026.88
2018-09-08T15:40:46.332Z,95028.64
2018-09-08T15:43:15.388Z,95027.50
2018-09-08T15:45:44.411Z,95025.72
2018-09-08T15:48:14.821Z,95024.85
2018-09-08T15:50:44.343Z,95022.66
2018-09-08T15:53:13.452Z,95024.98
2018-09-08T15:55:42.563Z,95030.02
2018-09-08T15:58:11.915Z,95028.23
2018-09-08T16:00:40.952Z,95027.66
2018-09-08T16:03:09.945Z,95027.66
2018-09-08T16:05:39.047Z,95031.42
2018-09-08T16:08:08.088Z,95031.42
2018-09-08T16:10:37.991Z,95032.85
2018-09-08T16:13:08.263Z,95032.98
2018-09-08T16:15:37.687Z,95038.55
2018-09-08T16:18:07.094Z,95037.20
2018-09-08T16:20:36.506Z,95042.86
2018-09-08T16:23:05.495Z,95041.84
2018-09-08T16:25:34.800Z,95044.71
2018-09-08T16:28:04.319Z,95044.41
2018-09-08T16:30:33.284Z,95047.13
2018-09-08T16:33:02.308Z,95053.45
2018-09-08T16:35:31.614Z,95058.81
2018-09-08T16:38:00.706Z,95059.57
2018-09-08T16:40:29.683Z,95064.84
2018-09-08T16:42:59.577Z,95060.67
2018-09-08T16:45:28.686Z,95071.11
2018-09-08T16:47:57.674Z,95076.03
2018-09-08T16:50:27.423Z,95080.22
2018-09-08T16:52:56.342Z,95078.65
2018-09-08T16:55:25.279Z,95085.09
2018-09-08T16:57:54.611Z,95083.23
2018-09-08T17:00:23.833Z,95093.16
2018-09-08T17:02:52.978Z,95101.20
2018-09-08T17:05:22.387Z,95107.23
2018-09-08T17:07:51.374Z,95113.09
2018-09-08T17:10:20.383Z,95115.02
2018-09-08T17:12:49.419Z,95120.59
2018-09-08T17:15:18.479Z,95128.22
2018-09-08T17:17:47.423Z,95129.05
2018-09-08T17:20:16.610Z,95133.70
2018-09-08T17:22:45.698Z,95134.80
2018-09-08T17:25:14.546Z,95138.09
2018-09-08T17:27:43.799Z,95140.91
2018-09-08T17:30:12.819Z,95138.54
2018-09-08T17:32:41.855Z,95137.14
2018-09-08T17:35:11.118Z,95141.38
2018-09-08T17:37:40.256Z,95143.50
2018-09-08T17:40:09.351Z,95146.81
2018-09-08T17:42:38.663Z,95148.11
2018-09-08T17:45:07.746Z,95151.27
2018-09-08T17:47:36.844Z,95151.81
2018-09-08T17:50:06.864Z,95156.14
2018-09-08T17:52:36.425Z,95156.90
2018-09-08T17:55:06.181Z,95159.14
2018-09-08T17:57:35.552Z,95165.39
2018-09-08T18:00:05.687Z,95165.67
2018-09-08T18:02:34.590Z,95175.41
2018-09-08T18:05:03.987Z,95177.84
2018-09-08T18:07:32.980Z,95179.11
2018-09-08T18:10:01.978Z,95184.34
2018-09-08T18:12:31.123Z,95188.02
2018-09-08T18:15:00.287Z,95187.11
2018-09-08T18:17:29.452Z,95189.61
2018-09-08T18:19:58.517Z,95188.20
2018-09-08T18:22:27.474Z,95188.43
2018-09-08T18:24:56.666Z,95198.09
2018-09-08T18:27:26.254Z,95207.56
2018-09-08T18:29:55.178Z,95202.19
2018-09-08T18:32:24.181Z,95209.30
2018-09-08T18:34:53.276Z,95208.32
2018-09-08T18:37:22.835Z,95203.86
2018-09-08T18:39:51.848Z,95206.87
2018-09-08T18:42:21.104Z,95212.37
2018-09-08T18:44:50.859Z,95211.69
2018-09-08T18:47:19.767Z,95212.45
2018-09-08T18:49:49.255Z,95212.24
2018-09-08T18:52:18.140Z,95210.84
2018-09-08T18:54:47.251Z,95212.66
2018-09-08T18:57:16.810Z,95208.41
2018-09-08T18:59:45.670Z,95201.37
2018-09-08T19:02:14.679Z,95208.06
2018-09-08T19:04:44.134Z,95204.16
2018-09-08T19:07:13.167Z,95200.94
2018-09-08T19:09:42.636Z,95201.59
2018-09-08T19:12:12.216Z,95198.22
2018-09-08T19:14:46.526Z,95204.37
2018-09-08T19:17:15.619Z,95199.48
2018-09-08T19:19:44.583Z,95204.81
2018-09-08T19:22:13.571Z,95202.67
2018-09-08T19:24:43.862Z,95203.03
2018-09-08T19:27:13.603Z,95218.22
2018-09-08T19:29:49.302Z,95220.16
2018-09-08T19:32:19.626Z,95212.81
2018-09-08T19:34:55.141Z,95215.84
2018-09-08T19:37:24.232Z,95221.41
2018-09-08T19:39:53.954Z,95219.23
2018-09-08T19:42:23.449Z,95221.77
2018-09-08T19:44:52.524Z,95220.39
2018-09-08T19:47:26.959Z,95218.27
2018-09-08T19:49:56.088Z,95217.88
2018-09-08T19:52:30.745Z,95210.92
2018-09-08T19:55:00.404Z,95213.08
2018-09-08T19:57:34.821Z,95213.08
2018-09-08T20:00:03.859Z,95219.27
2018-09-08T20:02:32.863Z,95217.88
2018-09-08T20:05:02.079Z,95218.01
2018-09-08T20:07:31.086Z,95214.10
2018-09-08T20:09:59.936Z,95218.91
2018-09-08T20:12:29.331Z,95219.53
2018-09-08T20:14:58.292Z,95231.71
2018-09-08T20:17:27.512Z,95235.48
2018-09-08T20:19:56.507Z,95237.02
2018-09-08T20:22:27.467Z,95232.31
2018-09-08T20:24:56.533Z,95236.12
2018-09-08T20:27:25.946Z,95239.92
2018-09-08T20:29:55.148Z,95241.57
2018-09-08T20:32:24.240Z,95246.89
2018-09-08T20:34:53.773Z,95247.41
2018-09-08T20:37:22.615Z,95243.73
2018-09-08T20:39:51.618Z,95246.52
2018-09-08T20:42:20.964Z,95245.13
2018-09-08T20:44:50.236Z,95245.88
2018-09-08T20:47:19.727Z,95249.55
2018-09-08T20:49:49.112Z,95245.88
2018-09-08T20:52:18.524Z,95247.80
2018-09-08T20:54:47.458Z,95260.03
2018-09-08T20:57:16.760Z,95255.73
2018-09-08T20:59:45.843Z,95264.59
2018-09-08T21:02:14.931Z,95260.15
2018-09-08T21:04:44.337Z,95263.45
2018-09-08T21:07:13.439Z,95265.45
2018-09-08T21:09:42.835Z,95261.95
2018-09-08T21:12:12.079Z,95265.35
2018-09-08T21:14:41.118Z,95264.59
2018-09-08T21:17:10.334Z,95270.15
2018-09-08T21:19:39.294Z,95267.49
2018-09-08T21:22:08.306Z,95268.77
2018-09-08T21:24:37.298Z,95267.87
2018-09-08T21:27:06.812Z,95270.77
2018-09-08T21:29:35.715Z,95274.81
2018-09-08T21:32:04.882Z,95271.16
2018-09-08T21:34:34.324Z,95274.06
2018-09-08T21:37:03.491Z,95268.75
2018-09-08T21:39:32.422Z,95266.75
2018-09-08T21:42:01.914Z,95269.63
2018-09-08T21:44:30.906Z,95266.24
2018-09-08T21:46:59.802Z,95272.91
2018-09-08T21:49:29.024Z,95274.95
2018-09-08T21:51:57.991Z,95283.02
2018-09-08T21:54:27.164Z,95286.05
2018-09-08T21:56:56.590Z,95285.54
2018-09-08T21:59:25.587Z,95280.98
2018-09-08T22:01:54.680Z,95286.39
2018-09-08T22:04:23.978Z,95282.25
2018-09-08T22:06:52.988Z,95285.52
2018-09-08T22:09:21.785Z,95282.23
2018-09-08T22:11:51.274Z,95290.58
2018-09-08T22:14:20.471Z,95293.87
2018-09-08T22:16:49.471Z,95287.80
2018-09-08T22:19:18.491Z,95291.34
2018-09-08T22:21:47.256Z,95283.27
2018-09-08T22:24:16.258Z,95288.19
2018-09-08T22:26:45.512Z,95286.66
2018-09-08T22:29:14.622Z,95284.50
2018-09-08T22:31:43.627Z,95286.92
2018-09-08T22:34:12.569Z,95289.95
2018-09-08T22:36:41.714Z,95285.16
2018-09-08T22:39:10.333Z,95290.31
2018-09-08T22:41:39.749Z,95285.00
2018-09-08T22:44:08.735Z,95283.87
2018-09-08T22:46:37.926Z,95276.42
2018-09-08T22:49:07.577Z,95275.43
2018-09-08T22:51:36.720Z,95276.06
2018-09-08T22:54:05.817Z,95276.19
2018-09-08T22:56:34.718Z,95279.09
2018-09-08T22:59:03.715Z,95281.36
2018-09-08T23:01:32.995Z,95281.22
2018-09-08T23:04:02.336Z,95276.55
2018-09-08T23:06:31.322Z,95277.30
2018-09-08T23:09:00.312Z,95275.53
2018-09-08T23:11:29.932Z,95267.59
2018-09-08T23:13:58.894Z,95271.64
2018-09-08T23:16:27.893Z,95271.26
2018-09-08T23:18:57.304Z,95269.38
2018-09-08T23:21:26.264Z,95274.55
2018-09-08T23:23:55.181Z,95271.26
2018-09-08T23:26:24.658Z,95274.55
2018-09-08T23:28:53.774Z,95268.36
2018-09-08T23:31:22.695Z,95268.44
2018-09-08T23:33:52.468Z,95266.91
2018-09-08T23:36:21.385Z,95260.23
2018-09-08T23:38:50.567Z,95265.64
2018-09-08T23:41:19.907Z,95270.81
2018-09-08T23:43:48.966Z,95278.24
2018-09-08T23:46:17.756Z,95284.28
2018-09-08T23:48:47.103Z,95276.86
2018-09-08T23:51:16.305Z,95267.25
2018-09-08T23:53:45.371Z,95278.59
2018-09-08T23:56:14.781Z,95274.43
2018-09-08T23:58:43.787Z,95280.63
